createdAt,value
2022-11-13T00:00:53.791Z,9.27
2022-11-13T00:06:16.216Z,8.23
2022-11-13T00:11:37.504Z,9.10
2022-11-13T00:16:58.859Z,8.20
2022-11-13T00:22:20.023Z,8.60
2022-11-13T00:27:41.637Z,8.52
2022-11-13T00:33:02.713Z,9.98
2022-11-13T00:38:23.864Z,9.07
2022-11-13T00:43:45.017Z,9.73
2022-11-13T00:49:06.008Z,9.02
2022-11-13T00:54:27.275Z,8.07
2022-11-13T00:59:48.717Z,9.60
2022-11-13T01:05:10.231Z,9.43
2022-11-13T01:10:31.757Z,9.35
2022-11-13T01:15:53.019Z,8.70
2022-11-13T01:21:18.509Z,8.75
2022-11-13T01:26:39.323Z,8.70
2022-11-13T01:32:00.507Z,7.75
2022-11-13T01:37:21.496Z,8.70
2022-11-13T01:42:43.236Z,7.10
2022-11-13T01:48:04.641Z,6.25
2022-11-13T01:53:26.021Z,7.18
2022-11-13T01:58:52.577Z,6.97
2022-11-13T02:04:14.005Z,6.15
2022-11-13T02:09:41.439Z,5.80
2022-11-13T02:15:05.625Z,5.80
2022-11-13T02:20:56.050Z,5.63
2022-11-13T02:26:17.804Z,5.40
2022-11-13T02:31:39.113Z,6.60
2022-11-13T02:37:00.142Z,6.32
2022-11-13T02:42:21.010Z,5.70
2022-11-13T02:47:42.583Z,5.35
2022-11-13T02:53:04.843Z,5.28
2022-11-13T02:58:26.181Z,5.43
2022-11-13T03:03:57.492Z,5.57
2022-11-13T03:09:19.243Z,4.95
2022-11-13T03:14:40.515Z,4.57
2022-11-13T03:20:01.993Z,4.05
2022-11-13T03:25:22.959Z,4.78
2022-11-13T03:30:44.383Z,4.32
2022-11-13T03:36:06.011Z,3.95
2022-11-13T03:41:27.345Z,3.70
2022-11-13T03:46:48.778Z,4.30
2022-11-13T03:52:09.993Z,3.65
2022-11-13T03:57:32.560Z,3.38
2022-11-13T04:02:53.820Z,3.40
2022-11-13T04:08:15.890Z,2.85
2022-11-13T04:13:37.045Z,3.50
2022-11-13T04:18:58.371Z,3.03
2022-11-13T04:24:19.725Z,4.07
2022-11-13T04:29:40.987Z,3.80
2022-11-13T04:35:07.973Z,2.72
2022-11-13T04:40:29.347Z,2.80
2022-11-13T04:45:53.080Z,2.30
2022-11-13T04:51:14.180Z,2.53
2022-11-13T04:56:35.041Z,2.78
2022-11-13T05:01:56.511Z,3.00
2022-11-13T05:07:18.471Z,2.47
2022-11-13T05:12:39.606Z,2.55
2022-11-13T05:18:00.866Z,2.55
2022-11-13T05:23:22.312Z,2.50
2022-11-13T05:28:43.722Z,2.33
2022-11-13T05:34:06.376Z,2.60
2022-11-13T05:39:27.433Z,2.50
2022-11-13T05:44:48.862Z,2.17
2022-11-13T05:50:10.509Z,2.50
2022-11-13T05:55:31.510Z,1.98
2022-11-13T06:00:52.449Z,1.98
2022-11-13T06:06:16.999Z,2.58
2022-11-13T06:16:59.364Z,2.53
2022-11-13T06:22:20.671Z,2.13
2022-11-13T06:27:41.681Z,6.03
2022-11-13T06:33:02.880Z,2.10
2022-11-13T06:38:23.878Z,1.83
2022-11-13T06:43:45.414Z,1.77
2022-11-13T06:49:06.854Z,1.80
2022-11-13T06:54:28.267Z,1.70
2022-11-13T06:59:49.504Z,2.10
2022-11-13T07:05:11.071Z,1.90
2022-11-13T07:10:32.458Z,2.10
2022-11-13T07:15:54.011Z,1.92
2022-11-13T07:21:14.979Z,2.20
2022-11-13T07:26:36.480Z,1.63
2022-11-13T07:31:57.583Z,1.58
2022-11-13T07:37:19.201Z,2.10
2022-11-13T07:42:40.553Z,1.70
2022-11-13T07:48:03.041Z,1.73
2022-11-13T07:53:24.326Z,2.00
2022-11-13T07:58:45.565Z,1.65
2022-11-13T08:04:06.756Z,1.83
2022-11-13T08:09:28.038Z,1.83
2022-11-13T08:14:49.073Z,2.00
2022-11-13T08:20:10.806Z,2.30
2022-11-13T08:25:33.628Z,2.10
2022-11-13T08:30:54.688Z,3.08
2022-11-13T08:36:15.536Z,2.60
2022-11-13T08:41:36.853Z,2.35
2022-11-13T08:46:58.776Z,2.75
2022-11-13T08:52:20.067Z,3.33
2022-11-13T08:57:40.809Z,3.00
2022-11-13T09:03:02.369Z,3.53
2022-11-13T09:08:23.295Z,3.13
2022-11-13T09:13:47.472Z,3.83
2022-11-13T09:19:12.122Z,3.50
2022-11-13T09:24:33.286Z,2.67
2022-11-13T09:29:55.677Z,2.90
2022-11-13T09:35:17.045Z,2.40
2022-11-13T09:41:04.013Z,2.60
2022-11-13T09:46:36.742Z,2.28
2022-11-13T09:52:05.273Z,1.83
2022-11-13T09:58:07.810Z,2.30
2022-11-13T10:04:00.957Z,2.28
2022-11-13T10:09:47.339Z,2.00
2022-11-13T10:20:48.940Z,2.92
2022-11-13T10:26:21.779Z,2.95
2022-11-13T10:31:51.415Z,2.78
2022-11-13T10:37:24.660Z,2.45
2022-11-13T10:42:45.961Z,2.10
2022-11-13T10:48:20.187Z,2.00
2022-11-13T10:53:42.719Z,1.88
2022-11-13T10:59:13.172Z,1.90
2022-11-13T11:04:34.394Z,1.65
2022-11-13T11:09:55.519Z,2.28
2022-11-13T11:15:21.645Z,1.55
2022-11-13T11:20:53.216Z,2.20
2022-11-13T11:26:23.104Z,1.83
2022-11-13T11:32:19.668Z,1.67
2022-11-13T11:37:48.910Z,1.60
2022-11-13T11:43:44.501Z,1.80
2022-11-13T11:49:06.736Z,1.73
2022-11-13T11:54:42.340Z,1.48
2022-11-13T12:00:15.608Z,1.70
2022-11-13T12:06:03.807Z,2.22
2022-11-13T12:11:34.938Z,1.88
2022-11-13T12:17:17.409Z,1.80
2022-11-13T12:22:40.285Z,1.50
2022-11-13T12:28:13.519Z,1.63
2022-11-13T12:34:12.935Z,1.25
2022-11-13T12:40:07.794Z,1.38
2022-11-13T12:45:56.000Z,1.35
2022-11-13T12:51:18.750Z,1.27
2022-11-13T12:56:39.973Z,1.40
2022-11-13T13:02:07.358Z,1.60
2022-11-13T13:07:40.127Z,1.58
2022-11-13T13:13:10.859Z,1.55
2022-11-13T13:18:35.066Z,1.20
2022-11-13T13:24:08.349Z,1.38
2022-11-13T13:29:30.831Z,1.30
2022-11-13T13:35:29.534Z,1.60
2022-11-13T13:41:19.479Z,1.33
2022-11-13T13:46:41.777Z,1.38
2022-11-13T13:52:05.712Z,1.15
2022-11-13T13:57:27.550Z,1.40
2022-11-13T14:02:50.785Z,2.10
2022-11-13T14:08:25.318Z,1.70
2022-11-13T14:13:46.769Z,1.48
2022-11-13T14:19:12.085Z,1.70
2022-11-13T14:24:51.879Z,2.20
2022-11-13T14:30:27.614Z,2.08
2022-11-13T14:35:54.225Z,3.03
2022-11-13T14:41:38.483Z,2.92
2022-11-13T14:47:05.795Z,3.97
2022-11-13T14:52:28.676Z,3.85
2022-11-13T14:57:50.508Z,3.90
2022-11-13T15:03:11.522Z,4.05
2022-11-13T15:08:35.258Z,5.10
2022-11-13T15:14:01.438Z,4.57
2022-11-13T15:19:35.449Z,5.75
2022-11-13T15:24:56.767Z,5.38
2022-11-13T15:30:20.702Z,4.95
2022-11-13T15:35:43.394Z,6.10
2022-11-13T15:41:14.737Z,6.05
2022-11-13T15:46:36.073Z,5.57
2022-11-13T15:51:57.179Z,5.75
2022-11-13T15:57:29.964Z,5.28
2022-11-13T16:02:54.962Z,6.07
2022-11-13T16:08:16.371Z,6.00
2022-11-13T16:13:37.666Z,6.30
2022-11-13T16:19:00.408Z,8.05
2022-11-13T16:24:24.220Z,6.60
2022-11-13T16:29:45.729Z,6.13
2022-11-13T16:35:07.281Z,7.13
2022-11-13T16:40:30.559Z,7.47
2022-11-13T16:45:52.814Z,6.78
2022-11-13T16:51:14.508Z,7.10
2022-11-13T16:56:35.762Z,7.97
2022-11-13T17:01:57.047Z,6.55
2022-11-13T17:07:18.297Z,6.25
2022-11-13T17:12:39.907Z,6.10
2022-11-13T17:18:00.935Z,6.13
2022-11-13T17:23:22.028Z,6.40
2022-11-13T17:28:43.728Z,5.20
2022-11-13T17:34:04.881Z,5.47
2022-11-13T17:39:26.037Z,6.45
2022-11-13T17:44:46.989Z,6.13
2022-11-13T17:50:08.260Z,5.43
2022-11-13T17:55:29.418Z,6.07
2022-11-13T18:00:51.470Z,6.20
2022-11-13T18:06:18.382Z,6.53
2022-11-13T18:11:40.814Z,6.05
2022-11-13T18:17:01.788Z,6.47
2022-11-13T18:22:23.384Z,6.68
2022-11-13T18:27:44.560Z,5.70
2022-11-13T18:33:06.571Z,6.65
2022-11-13T18:38:27.857Z,5.35
2022-11-13T18:43:50.031Z,6.28
2022-11-13T18:49:11.378Z,5.35
2022-11-13T18:54:32.819Z,6.03
2022-11-13T18:59:53.972Z,5.60
2022-11-13T19:05:15.315Z,5.32
2022-11-13T19:10:36.323Z,5.03
2022-11-13T19:15:57.485Z,4.75
2022-11-13T19:21:19.674Z,5.32
2022-11-13T19:26:41.887Z,5.55
2022-11-13T19:32:03.036Z,3.97
2022-11-13T19:37:24.103Z,4.25
2022-11-13T19:42:45.295Z,4.82
2022-11-13T19:48:06.870Z,4.18
2022-11-13T19:53:28.383Z,3.45
2022-11-13T19:58:50.670Z,4.30
2022-11-13T20:04:14.009Z,3.88
2022-11-13T20:09:35.262Z,3.42
2022-11-13T20:14:56.934Z,3.22
2022-11-13T20:20:17.923Z,3.80
2022-11-13T20:25:38.974Z,2.95
2022-11-13T20:31:08.511Z,3.67
2022-11-13T20:36:29.639Z,3.65
2022-11-13T20:41:51.098Z,3.25
2022-11-13T20:47:12.216Z,4.07
2022-11-13T20:52:33.822Z,3.60
2022-11-13T20:57:55.708Z,3.38
2022-11-13T21:03:16.994Z,3.90
2022-11-13T21:08:38.222Z,3.08
2022-11-13T21:14:01.074Z,3.10
2022-11-13T21:19:22.852Z,3.78
2022-11-13T21:24:44.179Z,4.10
2022-11-13T21:30:06.880Z,4.15
2022-11-13T21:35:28.571Z,3.42
2022-11-13T21:41:09.494Z,3.30
2022-11-13T21:46:33.458Z,2.72
2022-11-13T21:51:54.489Z,2.83
2022-11-13T21:57:16.180Z,2.53
2022-11-13T22:02:37.245Z,2.58
2022-11-13T22:07:58.189Z,2.05
2022-11-13T22:13:19.320Z,2.30
2022-11-13T22:18:40.548Z,1.55
2022-11-13T22:24:01.955Z,1.80
2022-11-13T22:29:23.182Z,2.00
2022-11-13T22:34:44.158Z,1.85
2022-11-13T22:40:06.872Z,2.00
2022-11-13T22:45:27.819Z,2.63
2022-11-13T22:50:49.116Z,2.17
2022-11-13T22:56:14.675Z,2.10
2022-11-13T23:01:38.646Z,1.95
2022-11-13T23:06:59.882Z,2.40
2022-11-13T23:12:21.177Z,2.30
2022-11-13T23:17:42.775Z,2.78
2022-11-13T23:23:04.128Z,2.70
2022-11-13T23:28:25.046Z,3.45
2022-11-13T23:33:46.492Z,3.42
2022-11-13T23:39:07.675Z,3.35
2022-11-13T23:44:28.587Z,3.83
2022-11-13T23:49:49.663Z,4.65
2022-11-13T23:55:10.929Z,4.63
